AFR2N LFPG-KJFK
Flight info
| Callsign | AFR2N |
|---|---|
| Flight time | N/A |
| Altitude | 34000 |
| Route | ELCOB UT300 SENLO DCT JSY DCT LIZAD DCT LESLU DCT TOBOR/M084F360 DCT 5230N02000W 5130N03000W 4930N04000W 4730N05000W DCT OMSAT/N0476F360 N226B TUSKY DCT PLYMM PARCH4 |
| Aircraft | B77W/H-SDE1E2E3FGHIJ2J3J4J5M1RWXY/LB1D1 |
Departure
| Time | 2026-05-08 05:34 |
|---|---|
| Airport | Charles de Gaulle International Airport (LFPG) |
Arrival
| Time | N/A |
|---|---|
| Airport | John F. Kennedy International Airport (KJFK) |
| Time | Latitude | Longitude | Altitude | Speed | Heading |
|---|---|---|---|---|---|
| 2026-05-08 05:18 | 49.00207 | 2.58639 | 359 ft | 0 kts | 262° |
| 2026-05-08 05:24 | 49.00205 | 2.58619 | 367 ft | 0 kts | 262° |
| 2026-05-08 05:26 | 49.00207 | 2.58645 | 359 ft | 4 kts | 257° |
| 2026-05-08 05:27 | 49.00215 | 2.58685 | 364 ft | 4 kts | 246° |
| 2026-05-08 05:27 | 49.00228 | 2.58720 | 368 ft | 4 kts | 230° |
| 2026-05-08 05:27 | 49.00247 | 2.58746 | 367 ft | 4 kts | 200° |
| 2026-05-08 05:27 | 49.00264 | 2.58751 | 366 ft | 0 kts | 175° |
| 2026-05-08 05:29 | 49.00263 | 2.58751 | 367 ft | 2 kts | 175° |
| 2026-05-08 05:30 | 49.00214 | 2.58758 | 364 ft | 12 kts | 175° |
| 2026-05-08 05:30 | 49.00133 | 2.58768 | 362 ft | 12 kts | 175° |
| 2026-05-08 05:30 | 49.00056 | 2.58742 | 363 ft | 12 kts | 220° |
| 2026-05-08 05:30 | 49.00029 | 2.58620 | 362 ft | 17 kts | 262° |
| 2026-05-08 05:31 | 49.00014 | 2.58345 | 365 ft | 29 kts | 265° |
| 2026-05-08 05:31 | 48.99997 | 2.58041 | 359 ft | 29 kts | 265° |
| 2026-05-08 05:31 | 48.99981 | 2.57737 | 362 ft | 29 kts | 265° |
| 2026-05-08 05:31 | 48.99966 | 2.57433 | 359 ft | 29 kts | 265° |
| 2026-05-08 05:32 | 48.99950 | 2.57129 | 364 ft | 29 kts | 265° |
| 2026-05-08 05:32 | 48.99933 | 2.56825 | 359 ft | 29 kts | 265° |
| 2026-05-08 05:32 | 48.99909 | 2.56633 | 368 ft | 14 kts | 231° |
| 2026-05-08 05:32 | 48.99820 | 2.56604 | 365 ft | 14 kts | 177° |
| 2026-05-08 05:33 | 48.99725 | 2.56611 | 365 ft | 14 kts | 177° |
| 2026-05-08 05:33 | 48.99651 | 2.56625 | 363 ft | 8 kts | 149° |
| 2026-05-08 05:33 | 48.99643 | 2.56660 | 367 ft | 0 kts | 85° |
| 2026-05-08 05:33 | 48.99644 | 2.56674 | 363 ft | 11 kts | 85° |
| 2026-05-08 05:34 | 48.99672 | 2.57203 | 365 ft | 90 kts | 85° |
| 2026-05-08 05:34 | 48.99743 | 2.58519 | 363 ft | 157 kts | 85° |
| 2026-05-08 05:34 | 48.99855 | 2.60387 | 657 ft | 180 kts | 84° |
| 2026-05-08 05:34 | 48.99952 | 2.62309 | 1382 ft | 184 kts | 86° |
| 2026-05-08 05:35 | 49.00047 | 2.64227 | 2098 ft | 186 kts | 86° |
| 2026-05-08 05:35 | 49.00157 | 2.66334 | 2316 ft | 209 kts | 86° |
| 2026-05-08 05:35 | 49.00282 | 2.68639 | 2503 ft | 233 kts | 85° |
| 2026-05-08 05:35 | 49.00420 | 2.71199 | 2922 ft | 248 kts | 86° |
| 2026-05-08 05:36 | 49.00555 | 2.73860 | 3543 ft | 256 kts | 86° |
| 2026-05-08 05:36 | 49.00694 | 2.76591 | 4232 ft | 261 kts | 85° |
| 2026-05-08 05:36 | 49.00690 | 2.79358 | 4851 ft | 265 kts | 97° |
| 2026-05-08 05:36 | 49.00385 | 2.82158 | 5454 ft | 271 kts | 101° |
| 2026-05-08 05:37 | 49.00033 | 2.84999 | 6178 ft | 274 kts | 100° |
| 2026-05-08 05:37 | 48.99701 | 2.87876 | 6856 ft | 278 kts | 99° |
| 2026-05-08 05:37 | 48.99382 | 2.90799 | 7519 ft | 282 kts | 99° |
| 2026-05-08 05:37 | 48.99061 | 2.93806 | 8180 ft | 286 kts | 99° |
| 2026-05-08 05:38 | 48.98717 | 2.96756 | 8797 ft | 287 kts | 107° |
| 2026-05-08 05:38 | 48.97736 | 2.99392 | 9253 ft | 292 kts | 139° |
| 2026-05-08 05:38 | 48.96011 | 3.00942 | 9912 ft | 289 kts | 167° |
| 2026-05-08 05:38 | 48.94026 | 3.01194 | 10447 ft | 291 kts | 190° |
| 2026-05-08 05:39 | 48.92067 | 3.00173 | 10632 ft | 310 kts | 213° |
| 2026-05-08 05:39 | 48.90416 | 2.97945 | 10805 ft | 329 kts | 232° |
| 2026-05-08 05:39 | 48.89178 | 2.94908 | 10949 ft | 349 kts | 248° |
| 2026-05-08 05:39 | 48.88474 | 2.91312 | 11426 ft | 361 kts | 256° |
| 2026-05-08 05:40 | 48.87953 | 2.87534 | 12132 ft | 369 kts | 258° |
| 2026-05-08 05:40 | 48.87442 | 2.83696 | 13033 ft | 372 kts | 257° |
| 2026-05-08 05:40 | 48.86892 | 2.79833 | 13952 ft | 376 kts | 256° |
| 2026-05-08 05:40 | 48.86297 | 2.75949 | 14730 ft | 380 kts | 255° |
| 2026-05-08 05:41 | 48.85664 | 2.72028 | 15504 ft | 385 kts | 254° |
| 2026-05-08 05:41 | 48.85004 | 2.68064 | 16282 ft | 389 kts | 254° |
| 2026-05-08 05:41 | 48.84327 | 2.64066 | 17054 ft | 394 kts | 254° |
| 2026-05-08 05:41 | 48.83636 | 2.60018 | 17839 ft | 398 kts | 254° |
| 2026-05-08 05:42 | 48.82937 | 2.55935 | 18577 ft | 402 kts | 254° |
| 2026-05-08 05:42 | 48.82231 | 2.51805 | 19260 ft | 406 kts | 254° |
| 2026-05-08 05:42 | 48.81517 | 2.47644 | 19956 ft | 409 kts | 254° |
| 2026-05-08 05:42 | 48.80796 | 2.43453 | 20648 ft | 411 kts | 255° |
| 2026-05-08 05:43 | 48.80379 | 2.39162 | 21099 ft | 418 kts | 270° |
| 2026-05-08 05:43 | 48.80917 | 2.34802 | 21631 ft | 423 kts | 287° |
| 2026-05-08 05:43 | 48.81866 | 2.30549 | 22147 ft | 428 kts | 286° |
| 2026-05-08 05:43 | 48.82775 | 2.26232 | 22779 ft | 431 kts | 285° |
| 2026-05-08 05:44 | 48.83662 | 2.21874 | 23449 ft | 434 kts | 285° |
| 2026-05-08 05:44 | 48.84531 | 2.17540 | 24012 ft | 436 kts | 285° |
| 2026-05-08 05:44 | 48.85414 | 2.13115 | 24531 ft | 440 kts | 285° |
| 2026-05-08 05:44 | 48.86313 | 2.08599 | 25036 ft | 443 kts | 285° |
| 2026-05-08 05:45 | 48.87195 | 2.04169 | 25529 ft | 446 kts | 285° |
| 2026-05-08 05:45 | 48.88106 | 1.99586 | 26029 ft | 449 kts | 285° |
| 2026-05-08 05:45 | 48.89009 | 1.95034 | 26495 ft | 452 kts | 285° |
| 2026-05-08 05:45 | 48.89917 | 1.90449 | 26966 ft | 455 kts | 284° |
| 2026-05-08 05:46 | 48.90829 | 1.85835 | 27428 ft | 458 kts | 284° |
| 2026-05-08 05:46 | 48.91733 | 1.81247 | 27872 ft | 460 kts | 284° |
| 2026-05-08 05:46 | 48.92664 | 1.76512 | 28296 ft | 463 kts | 284° |
| 2026-05-08 05:46 | 48.93575 | 1.71867 | 28726 ft | 465 kts | 284° |
| 2026-05-08 05:47 | 48.94500 | 1.67140 | 29135 ft | 467 kts | 284° |
| 2026-05-08 05:47 | 48.95428 | 1.62390 | 29499 ft | 470 kts | 284° |
| 2026-05-08 05:47 | 48.96357 | 1.57618 | 29914 ft | 471 kts | 284° |
| 2026-05-08 05:47 | 48.97283 | 1.52850 | 30361 ft | 469 kts | 284° |
| 2026-05-08 05:48 | 48.98206 | 1.48093 | 30850 ft | 467 kts | 284° |
| 2026-05-08 05:48 | 48.99119 | 1.43366 | 31307 ft | 465 kts | 284° |
| 2026-05-08 05:48 | 49.00028 | 1.38654 | 31737 ft | 463 kts | 284° |
| 2026-05-08 05:48 | 49.00933 | 1.33949 | 32142 ft | 462 kts | 284° |
| 2026-05-08 05:49 | 49.01834 | 1.29255 | 32558 ft | 461 kts | 284° |
| 2026-05-08 05:49 | 49.02728 | 1.24585 | 33022 ft | 458 kts | 284° |
| 2026-05-08 05:49 | 49.03455 | 1.19886 | 33407 ft | 454 kts | 276° |
| 2026-05-08 05:49 | 49.03688 | 1.15093 | 33742 ft | 453 kts | 271° |